sensor_id;sensor_type;location;lat;lon;timestamp;pressure;altitude;pressure_sealevel;temperature;humidity
77702;BME280;66868;42.708;23.404;2023-04-15T00:01:26;94406.84;;;7.47;80.99
77702;BME280;66868;42.708;23.404;2023-04-15T00:03:52;94407.91;;;7.29;82.13
77702;BME280;66868;42.708;23.404;2023-04-15T00:06:18;94410.06;;;7.49;79.90
77702;BME280;66868;42.708;23.404;2023-04-15T00:08:45;94430.22;;;7.64;80.10
77702;BME280;66868;42.708;23.404;2023-04-15T00:11:11;94433.84;;;7.74;80.76
77702;BME280;66868;42.708;23.404;2023-04-15T00:13:36;94428.38;;;7.23;80.58
77702;BME280;66868;42.708;23.404;2023-04-15T00:16:03;94446.25;;;7.19;79.19
77702;BME280;66868;42.708;23.404;2023-04-15T00:18:28;94445.81;;;7.12;78.52
77702;BME280;66868;42.708;23.404;2023-04-15T00:20:54;94455.94;;;7.10;78.16
77702;BME280;66868;42.708;23.404;2023-04-15T00:23:19;94442.50;;;6.96;77.18
77702;BME280;66868;42.708;23.404;2023-04-15T00:25:45;94445.41;;;7.04;77.50
77702;BME280;66868;42.708;23.404;2023-04-15T00:28:11;94431.75;;;7.08;77.38
77702;BME280;66868;42.708;23.404;2023-04-15T00:30:36;94413.88;;;7.13;77.94
77702;BME280;66868;42.708;23.404;2023-04-15T00:33:02;94423.00;;;7.29;78.49
77702;BME280;66868;42.708;23.404;2023-04-15T00:35:28;94342.72;;;6.81;78.13
77702;BME280;66868;42.708;23.404;2023-04-15T00:37:53;94428.59;;;7.34;78.55
77702;BME280;66868;42.708;23.404;2023-04-15T00:40:20;94410.06;;;7.35;78.35
77702;BME280;66868;42.708;23.404;2023-04-15T00:42:46;94420.13;;;7.49;78.51
77702;BME280;66868;42.708;23.404;2023-04-15T00:45:11;94417.28;;;7.55;78.83
77702;BME280;66868;42.708;23.404;2023-04-15T00:47:38;94417.81;;;7.61;79.44
77702;BME280;66868;42.708;23.404;2023-04-15T00:50:06;94431.66;;;7.68;77.40
77702;BME280;66868;42.708;23.404;2023-04-15T00:52:31;94440.69;;;7.58;78.63
77702;BME280;66868;42.708;23.404;2023-04-15T00:54:57;94459.56;;;7.65;78.88
77702;BME280;66868;42.708;23.404;2023-04-15T00:57:23;94445.53;;;7.61;77.77
77702;BME280;66868;42.708;23.404;2023-04-15T00:59:49;94446.41;;;7.60;77.62
77702;BME280;66868;42.708;23.404;2023-04-15T01:02:16;94427.97;;;7.45;79.10
77702;BME280;66868;42.708;23.404;2023-04-15T01:04:42;94434.97;;;7.54;79.75
77702;BME280;66868;42.708;23.404;2023-04-15T01:07:07;94446.97;;;7.65;80.42
77702;BME280;66868;42.708;23.404;2023-04-15T01:09:33;94452.00;;;7.65;80.25
77702;BME280;66868;42.708;23.404;2023-04-15T01:11:58;94445.19;;;7.67;79.73
77702;BME280;66868;42.708;23.404;2023-04-15T01:14:24;94440.50;;;7.61;79.63
77702;BME280;66868;42.708;23.404;2023-04-15T01:16:51;94435.44;;;7.61;79.65
77702;BME280;66868;42.708;23.404;2023-04-15T01:19:17;94429.88;;;7.55;80.31
77702;BME280;66868;42.708;23.404;2023-04-15T01:21:43;94406.84;;;7.47;80.69
77702;BME280;66868;42.708;23.404;2023-04-15T01:24:10;94437.50;;;7.68;80.88
77702;BME280;66868;42.708;23.404;2023-04-15T01:26:39;94437.25;;;7.59;79.98
77702;BME280;66868;42.708;23.404;2023-04-15T01:29:05;94436.78;;;7.52;81.23
77702;BME280;66868;42.708;23.404;2023-04-15T01:31:31;94427.53;;;7.52;81.28
77702;BME280;66868;42.708;23.404;2023-04-15T01:33:57;94428.44;;;7.51;80.99
77702;BME280;66868;42.708;23.404;2023-04-15T01:36:22;94429.25;;;7.52;81.42
77702;BME280;66868;42.708;23.404;2023-04-15T01:38:48;94435.34;;;7.48;81.81
77702;BME280;66868;42.708;23.404;2023-04-15T01:41:15;94457.63;;;7.40;81.81
77702;BME280;66868;42.708;23.404;2023-04-15T01:43:40;94455.72;;;7.29;80.94
77702;BME280;66868;42.708;23.404;2023-04-15T01:46:05;94445.56;;;7.17;80.84
77702;BME280;66868;42.708;23.404;2023-04-15T01:48:31;94445.25;;;7.07;80.01
77702;BME280;66868;42.708;23.404;2023-04-15T01:50:57;94434.31;;;6.92;79.78
77702;BME280;66868;42.708;23.404;2023-04-15T01:53:24;94449.50;;;6.91;80.16
77702;BME280;66868;42.708;23.404;2023-04-15T01:55:50;94450.63;;;6.85;79.74
77702;BME280;66868;42.708;23.404;2023-04-15T01:58:16;94451.81;;;6.80;80.06
77702;BME280;66868;42.708;23.404;2023-04-15T02:00:42;94454.47;;;6.77;79.68
77702;BME280;66868;42.708;23.404;2023-04-15T02:03:08;94456.34;;;6.73;80.04
77702;BME280;66868;42.708;23.404;2023-04-15T02:05:34;94455.34;;;6.76;79.75
77702;BME280;66868;42.708;23.404;2023-04-15T02:07:59;94458.38;;;6.66;78.83
77702;BME280;66868;42.708;23.404;2023-04-15T02:10:25;94460.88;;;6.66;79.00
77702;BME280;66868;42.708;23.404;2023-04-15T02:12:51;94432.50;;;6.49;78.12
77702;BME280;66868;42.708;23.404;2023-04-15T02:15:16;94460.28;;;6.47;77.98
77702;BME280;66868;42.708;23.404;2023-04-15T02:17:42;94462.34;;;6.39;77.56
77702;BME280;66868;42.708;23.404;2023-04-15T02:20:10;94459.28;;;6.34;78.29
77702;BME280;66868;42.708;23.404;2023-04-15T02:22:36;94451.34;;;6.26;77.92
77702;BME280;66868;42.708;23.404;2023-04-15T02:25:01;94449.88;;;6.22;77.76
77702;BME280;66868;42.708;23.404;2023-04-15T02:27:27;94412.41;;;6.02;77.42
77702;BME280;66868;42.708;23.404;2023-04-15T02:29:53;94445.72;;;6.21;77.38
77702;BME280;66868;42.708;23.404;2023-04-15T02:32:19;94449.38;;;6.15;77.62
77702;BME280;66868;42.708;23.404;2023-04-15T02:34:46;94447.91;;;6.11;77.11
77702;BME280;66868;42.708;23.404;2023-04-15T02:37:12;94439.00;;;5.90;77.23
77702;BME280;66868;42.708;23.404;2023-04-15T02:39:38;94430.72;;;5.88;78.02
77702;BME280;66868;42.708;23.404;2023-04-15T02:42:03;94443.03;;;5.93;77.84
77702;BME280;66868;42.708;23.404;2023-04-15T02:44:30;94453.88;;;5.93;78.14
77702;BME280;66868;42.708;23.404;2023-04-15T02:46:57;94456.94;;;5.83;78.29
77702;BME280;66868;42.708;23.404;2023-04-15T02:49:22;94464.66;;;5.78;79.00
77702;BME280;66868;42.708;23.404;2023-04-15T02:51:48;94464.03;;;5.74;79.36
77702;BME280;66868;42.708;23.404;2023-04-15T02:54:23;94469.69;;;5.78;80.21
77702;BME280;66868;42.708;23.404;2023-04-15T02:56:49;94480.66;;;5.77;80.31
77702;BME280;66868;42.708;23.404;2023-04-15T02:59:15;94474.66;;;5.79;80.40
77702;BME280;66868;42.708;23.404;2023-04-15T03:01:40;94465.66;;;5.75;79.79
77702;BME280;66868;42.708;23.404;2023-04-15T03:04:06;94463.31;;;5.72;79.03
77702;BME280;66868;42.708;23.404;2023-04-15T03:06:33;94469.22;;;5.71;79.67
77702;BME280;66868;42.708;23.404;2023-04-15T03:08:58;94465.38;;;5.64;79.29
77702;BME280;66868;42.708;23.404;2023-04-15T03:11:25;94450.69;;;5.57;79.14
77702;BME280;66868;42.708;23.404;2023-04-15T03:13:51;94454.84;;;5.58;79.88
77702;BME280;66868;42.708;23.404;2023-04-15T03:16:16;94468.34;;;5.55;79.66
77702;BME280;66868;42.708;23.404;2023-04-15T03:18:42;94476.19;;;5.49;79.93
77702;BME280;66868;42.708;23.404;2023-04-15T03:21:07;94448.56;;;5.32;79.89
77702;BME280;66868;42.708;23.404;2023-04-15T03:23:33;94424.25;;;5.17;80.11
77702;BME280;66868;42.708;23.404;2023-04-15T03:26:01;94458.53;;;5.33;80.72
77702;BME280;66868;42.708;23.404;2023-04-15T03:28:26;94471.03;;;5.35;80.20
77702;BME280;66868;42.708;23.404;2023-04-15T03:30:53;94476.34;;;5.29;78.94
77702;BME280;66868;42.708;23.404;2023-04-15T03:33:19;94469.31;;;5.18;79.69
77702;BME280;66868;42.708;23.404;2023-04-15T03:35:44;94490.88;;;5.22;79.54
77702;BME280;66868;42.708;23.404;2023-04-15T03:38:10;94497.44;;;5.25;79.22
77702;BME280;66868;42.708;23.404;2023-04-15T03:40:35;94493.63;;;5.18;78.85
77702;BME280;66868;42.708;23.404;2023-04-15T03:43:01;94501.47;;;5.10;79.16
77702;BME280;66868;42.708;23.404;2023-04-15T03:45:26;94505.03;;;5.06;79.96
77702;BME280;66868;42.708;23.404;2023-04-15T03:47:51;94494.47;;;5.00;79.99
77702;BME280;66868;42.708;23.404;2023-04-15T03:50:17;94506.22;;;4.99;79.39
77702;BME280;66868;42.708;23.404;2023-04-15T03:52:43;94516.16;;;5.01;80.59
77702;BME280;66868;42.708;23.404;2023-04-15T03:55:08;94503.16;;;4.93;80.59
77702;BME280;66868;42.708;23.404;2023-04-15T03:57:34;94515.34;;;5.00;80.43
77702;BME280;66868;42.708;23.404;2023-04-15T04:00:08;94519.25;;;5.06;80.81
77702;BME280;66868;42.708;23.404;2023-04-15T04:02:34;94496.66;;;4.88;80.46
77702;BME280;66868;42.708;23.404;2023-04-15T04:05:03;94524.56;;;5.00;80.64
77702;BME280;66868;42.708;23.404;2023-04-15T04:07:29;94531.50;;;4.95;81.34
77702;BME280;66868;42.708;23.404;2023-04-15T04:09:56;94517.81;;;4.83;81.80
77702;BME280;66868;42.708;23.404;2023-04-15T04:12:21;94498.75;;;4.62;82.10
77702;BME280;66868;42.708;23.404;2023-04-15T04:14:46;94535.75;;;4.93;81.93
77702;BME280;66868;42.708;23.404;2023-04-15T04:17:12;94506.69;;;4.88;81.98
77702;BME280;66868;42.708;23.404;2023-04-15T04:19:37;94527.22;;;4.97;82.38
77702;BME280;66868;42.708;23.404;2023-04-15T04:22:03;94517.16;;;4.79;82.37
77702;BME280;66868;42.708;23.404;2023-04-15T04:24:28;94528.84;;;4.98;82.41
77702;BME280;66868;42.708;23.404;2023-04-15T04:26:53;94526.94;;;5.03;82.01
77702;BME280;66868;42.708;23.404;2023-04-15T04:29:20;94517.72;;;5.03;82.29
77702;BME280;66868;42.708;23.404;2023-04-15T04:31:46;94519.66;;;5.15;82.73
77702;BME280;66868;42.708;23.404;2023-04-15T04:34:12;94525.31;;;5.19;81.79
77702;BME280;66868;42.708;23.404;2023-04-15T04:36:38;94496.09;;;5.01;82.29
77702;BME280;66868;42.708;23.404;2023-04-15T04:39:03;94537.16;;;5.34;82.21
77702;BME280;66868;42.708;23.404;2023-04-15T04:41:28;94531.09;;;5.38;82.60
77702;BME280;66868;42.708;23.404;2023-04-15T04:43:54;94552.06;;;5.54;82.80
77702;BME280;66868;42.708;23.404;2023-04-15T04:46:19;94554.88;;;5.48;82.16
77702;BME280;66868;42.708;23.404;2023-04-15T04:48:45;94554.34;;;5.42;82.49
77702;BME280;66868;42.708;23.404;2023-04-15T04:51:11;94554.06;;;5.30;82.95
77702;BME280;66868;42.708;23.404;2023-04-15T04:53:36;94549.25;;;5.26;83.39
77702;BME280;66868;42.708;23.404;2023-04-15T04:56:02;94561.44;;;5.33;84.45
77702;BME280;66868;42.708;23.404;2023-04-15T04:58:28;94546.66;;;5.27;85.10
77702;BME280;66868;42.708;23.404;2023-04-15T05:00:53;94546.75;;;5.26;85.75
77702;BME280;66868;42.708;23.404;2023-04-15T05:03:18;94541.72;;;5.26;84.36
77702;BME280;66868;42.708;23.404;2023-04-15T05:05:44;94559.13;;;5.46;83.36
77702;BME280;66868;42.708;23.404;2023-04-15T05:08:10;94562.94;;;5.55;82.82
77702;BME280;66868;42.708;23.404;2023-04-15T05:10:35;94552.56;;;5.61;83.13
77702;BME280;66868;42.708;23.404;2023-04-15T05:13:00;94568.75;;;5.72;82.55
77702;BME280;66868;42.708;23.404;2023-04-15T05:15:26;94581.41;;;5.88;82.48
77702;BME280;66868;42.708;23.404;2023-04-15T05:17:51;94585.97;;;5.97;81.96
77702;BME280;66868;42.708;23.404;2023-04-15T05:20:16;94594.91;;;6.03;81.02
77702;BME280;66868;42.708;23.404;2023-04-15T05:22:42;94577.59;;;6.14;81.55
77702;BME280;66868;42.708;23.404;2023-04-15T05:25:08;94585.28;;;6.28;81.16
77702;BME280;66868;42.708;23.404;2023-04-15T05:27:34;94583.00;;;6.39;79.81
77702;BME280;66868;42.708;23.404;2023-04-15T05:29:59;94585.06;;;6.48;79.53
77702;BME280;66868;42.708;23.404;2023-04-15T05:32:25;94585.50;;;6.56;79.42
77702;BME280;66868;42.708;23.404;2023-04-15T05:34:50;94586.47;;;6.70;79.39
77702;BME280;66868;42.708;23.404;2023-04-15T05:37:16;94588.75;;;6.74;79.20
77702;BME280;66868;42.708;23.404;2023-04-15T05:39:41;94591.97;;;6.76;79.37
77702;BME280;66868;42.708;23.404;2023-04-15T05:42:07;94585.81;;;6.82;79.51
77702;BME280;66868;42.708;23.404;2023-04-15T05:44:32;94586.81;;;6.95;79.15
77702;BME280;66868;42.708;23.404;2023-04-15T05:46:57;94572.28;;;7.00;78.29
77702;BME280;66868;42.708;23.404;2023-04-15T05:49:23;94562.53;;;7.09;78.90
77702;BME280;66868;42.708;23.404;2023-04-15T05:51:48;94590.91;;;7.27;79.49
77702;BME280;66868;42.708;23.404;2023-04-15T05:54:14;94580.03;;;7.27;79.38
77702;BME280;66868;42.708;23.404;2023-04-15T05:56:39;94562.03;;;7.19;78.60
77702;BME280;66868;42.708;23.404;2023-04-15T05:59:05;94602.38;;;7.48;77.99
77702;BME280;66868;42.708;23.404;2023-04-15T06:01:32;94608.34;;;7.62;77.63
77702;BME280;66868;42.708;23.404;2023-04-15T06:03:57;94601.34;;;7.67;77.49
77702;BME280;66868;42.708;23.404;2023-04-15T06:06:22;94617.22;;;7.83;76.46
77702;BME280;66868;42.708;23.404;2023-04-15T06:08:48;94616.69;;;7.92;75.76
77702;BME280;66868;42.708;23.404;2023-04-15T06:11:13;94615.38;;;8.00;75.23
77702;BME280;66868;42.708;23.404;2023-04-15T06:13:39;94616.47;;;8.11;74.25
77702;BME280;66868;42.708;23.404;2023-04-15T06:16:04;94533.41;;;7.65;74.38
77702;BME280;66868;42.708;23.404;2023-04-15T06:18:30;94608.13;;;8.24;74.50
77702;BME280;66868;42.708;23.404;2023-04-15T06:20:56;94613.28;;;8.37;73.80
77702;BME280;66868;42.708;23.404;2023-04-15T06:23:21;94628.81;;;8.45;74.17
77702;BME280;66868;42.708;23.404;2023-04-15T06:25:46;94620.88;;;8.51;74.58
77702;BME280;66868;42.708;23.404;2023-04-15T06:28:12;94626.09;;;8.62;74.67
77702;BME280;66868;42.708;23.404;2023-04-15T06:30:37;94629.78;;;8.71;74.64
77702;BME280;66868;42.708;23.404;2023-04-15T06:33:03;94629.72;;;8.72;74.22
77702;BME280;66868;42.708;23.404;2023-04-15T06:35:30;94629.78;;;8.85;74.95
77702;BME280;66868;42.708;23.404;2023-04-15T06:37:55;94639.13;;;8.97;74.88
77702;BME280;66868;42.708;23.404;2023-04-15T06:40:21;94639.59;;;9.04;74.10
77702;BME280;66868;42.708;23.404;2023-04-15T06:42:46;94644.72;;;9.16;73.55
77702;BME280;66868;42.708;23.404;2023-04-15T06:45:12;94645.97;;;9.23;73.42
77702;BME280;66868;42.708;23.404;2023-04-15T06:47:37;94628.38;;;9.22;73.35
77702;BME280;66868;42.708;23.404;2023-04-15T06:50:03;94640.78;;;9.39;72.56
77702;BME280;66868;42.708;23.404;2023-04-15T06:52:28;94645.91;;;9.52;72.92
77702;BME280;66868;42.708;23.404;2023-04-15T06:54:54;94640.84;;;9.52;73.04
77702;BME280;66868;42.708;23.404;2023-04-15T06:57:19;94656.50;;;9.71;72.33
77702;BME280;66868;42.708;23.404;2023-04-15T06:59:45;94658.75;;;9.75;71.91
77702;BME280;66868;42.708;23.404;2023-04-15T07:02:12;94644.56;;;9.73;72.31
77702;BME280;66868;42.708;23.404;2023-04-15T07:04:38;94649.28;;;9.92;71.67
77702;BME280;66868;42.708;23.404;2023-04-15T07:07:04;94643.41;;;9.91;71.78
77702;BME280;66868;42.708;23.404;2023-04-15T07:09:30;94600.25;;;9.67;72.09
77702;BME280;66868;42.708;23.404;2023-04-15T07:11:56;94651.13;;;10.02;72.54
77702;BME280;66868;42.708;23.404;2023-04-15T07:14:22;94643.03;;;9.97;72.47
77702;BME280;66868;42.708;23.404;2023-04-15T07:16:47;94651.66;;;10.07;72.23
77702;BME280;66868;42.708;23.404;2023-04-15T07:19:12;94662.09;;;10.15;71.50
77702;BME280;66868;42.708;23.404;2023-04-15T07:21:38;94656.03;;;10.18;71.85
77702;BME280;66868;42.708;23.404;2023-04-15T07:24:04;94652.94;;;10.13;70.11
77702;BME280;66868;42.708;23.404;2023-04-15T07:26:29;94653.03;;;10.26;70.78
77702;BME280;66868;42.708;23.404;2023-04-15T07:28:54;94656.66;;;10.34;70.46
77702;BME280;66868;42.708;23.404;2023-04-15T07:31:20;94650.91;;;10.45;70.04
77702;BME280;66868;42.708;23.404;2023-04-15T07:33:46;94656.06;;;10.56;68.76
77702;BME280;66868;42.708;23.404;2023-04-15T07:36:11;94655.69;;;10.62;68.34
77702;BME280;66868;42.708;23.404;2023-04-15T07:38:37;94645.34;;;10.65;69.22
77702;BME280;66868;42.708;23.404;2023-04-15T07:41:03;94653.63;;;10.80;69.18
77702;BME280;66868;42.708;23.404;2023-04-15T07:43:29;94646.34;;;10.88;69.58
77702;BME280;66868;42.708;23.404;2023-04-15T07:45:54;94638.44;;;10.92;69.41
77702;BME280;66868;42.708;23.404;2023-04-15T07:48:19;94649.25;;;11.07;69.00
77702;BME280;66868;42.708;23.404;2023-04-15T07:50:45;94650.34;;;11.16;69.64
77702;BME280;66868;42.708;23.404;2023-04-15T07:53:10;94658.03;;;11.27;68.42
77702;BME280;66868;42.708;23.404;2023-04-15T07:55:36;94669.56;;;11.31;68.75
77702;BME280;66868;42.708;23.404;2023-04-15T07:58:01;94641.19;;;11.26;69.12
77702;BME280;66868;42.708;23.404;2023-04-15T08:00:27;94674.19;;;11.49;68.73
77702;BME280;66868;42.708;23.404;2023-04-15T08:02:52;94678.03;;;11.55;67.67
77702;BME280;66868;42.708;23.404;2023-04-15T08:05:18;94685.91;;;11.63;67.35
77702;BME280;66868;42.708;23.404;2023-04-15T08:07:44;94677.88;;;11.69;65.81
77702;BME280;66868;42.708;23.404;2023-04-15T08:10:09;94676.78;;;11.73;66.43
77702;BME280;66868;42.708;23.404;2023-04-15T08:12:36;94683.03;;;11.80;66.22
77702;BME280;66868;42.708;23.404;2023-04-15T08:15:01;94677.47;;;11.99;65.20
77702;BME280;66868;42.708;23.404;2023-04-15T08:17:27;94668.63;;;12.05;65.00
77702;BME280;66868;42.708;23.404;2023-04-15T08:19:52;94678.00;;;12.15;65.64
77702;BME280;66868;42.708;23.404;2023-04-15T08:22:18;94672.69;;;12.18;63.51
77702;BME280;66868;42.708;23.404;2023-04-15T08:24:43;94681.16;;;12.30;63.62
77702;BME280;66868;42.708;23.404;2023-04-15T08:27:09;94669.75;;;12.35;64.08
77702;BME280;66868;42.708;23.404;2023-04-15T08:29:35;94672.31;;;12.47;63.66
77702;BME280;66868;42.708;23.404;2023-04-15T08:32:00;94673.03;;;12.60;63.14
77702;BME280;66868;42.708;23.404;2023-04-15T08:34:26;94663.72;;;12.71;61.87
77702;BME280;66868;42.708;23.404;2023-04-15T08:36:52;94673.19;;;12.92;62.11
77702;BME280;66868;42.708;23.404;2023-04-15T08:39:17;94637.16;;;12.87;61.12
77702;BME280;66868;42.708;23.404;2023-04-15T08:42:02;94663.19;;;13.12;59.42
77702;BME280;66868;42.708;23.404;2023-04-15T08:44:33;94669.53;;;13.29;58.74
77702;BME280;66868;42.708;23.404;2023-04-15T08:47:02;94669.53;;;13.40;58.56
77702;BME280;66868;42.708;23.404;2023-04-15T08:49:28;94671.00;;;13.54;55.43
77702;BME280;66868;42.708;23.404;2023-04-15T08:51:54;94667.84;;;13.61;54.06
77702;BME280;66868;42.708;23.404;2023-04-15T08:54:21;94640.59;;;13.63;53.92
77702;BME280;66868;42.708;23.404;2023-04-15T08:56:47;94660.31;;;13.82;55.41
77702;BME280;66868;42.708;23.404;2023-04-15T08:59:13;94660.22;;;14.04;55.01
77702;BME280;66868;42.708;23.404;2023-04-15T09:01:39;94657.50;;;14.17;53.45
77702;BME280;66868;42.708;23.404;2023-04-15T09:04:05;94650.94;;;14.35;53.76
77702;BME280;66868;42.708;23.404;2023-04-15T09:06:32;94658.41;;;14.48;51.11
77702;BME280;66868;42.708;23.404;2023-04-15T09:08:58;94639.53;;;14.50;49.75
77702;BME280;66868;42.708;23.404;2023-04-15T09:11:23;94631.81;;;14.62;48.95
77702;BME280;66868;42.708;23.404;2023-04-15T09:13:49;94642.50;;;14.76;49.71
77702;BME280;66868;42.708;23.404;2023-04-15T09:16:14;94648.34;;;14.88;49.72
77702;BME280;66868;42.708;23.404;2023-04-15T09:18:40;94631.34;;;14.98;47.46
77702;BME280;66868;42.708;23.404;2023-04-15T09:21:11;94629.88;;;15.05;47.08
77702;BME280;66868;42.708;23.404;2023-04-15T09:23:41;94629.22;;;15.13;47.16
77702;BME280;66868;42.708;23.404;2023-04-15T09:26:18;94620.69;;;15.23;46.15
77702;BME280;66868;42.708;23.404;2023-04-15T09:28:43;94625.53;;;15.36;45.64
77702;BME280;66868;42.708;23.404;2023-04-15T09:31:08;94632.00;;;15.49;45.23
77702;BME280;66868;42.708;23.404;2023-04-15T09:33:34;94636.25;;;15.70;42.57
77702;BME280;66868;42.708;23.404;2023-04-15T09:36:02;94627.28;;;15.85;41.45
77702;BME280;66868;42.708;23.404;2023-04-15T09:38:28;94628.47;;;16.00;40.83
77702;BME280;66868;42.708;23.404;2023-04-15T09:40:55;94633.72;;;16.27;40.37
77702;BME280;66868;42.708;23.404;2023-04-15T09:43:20;94624.03;;;16.41;38.92
77702;BME280;66868;42.708;23.404;2023-04-15T09:45:51;94627.50;;;16.49;38.54
77702;BME280;66868;42.708;23.404;2023-04-15T09:48:21;94635.28;;;16.76;39.63
77702;BME280;66868;42.708;23.404;2023-04-15T09:50:48;94627.94;;;17.01;39.79
77702;BME280;66868;42.708;23.404;2023-04-15T09:53:18;94637.09;;;17.31;37.83
77702;BME280;66868;42.708;23.404;2023-04-15T09:55:55;94635.66;;;17.46;38.22
77702;BME280;66868;42.708;23.404;2023-04-15T09:58:32;94632.22;;;17.37;36.84
77702;BME280;66868;42.708;23.404;2023-04-15T10:00:59;94644.59;;;17.69;37.48
77702;BME280;66868;42.708;23.404;2023-04-15T10:03:28;94631.28;;;17.65;36.24
77702;BME280;66868;42.708;23.404;2023-04-15T10:05:55;94627.91;;;17.65;36.20
77702;BME280;66868;42.708;23.404;2023-04-15T10:08:27;94632.72;;;17.68;36.60
77702;BME280;66868;42.708;23.404;2023-04-15T10:10:53;94630.56;;;17.73;35.76
77702;BME280;66868;42.708;23.404;2023-04-15T10:13:24;94632.63;;;17.87;35.19
77702;BME280;66868;42.708;23.404;2023-04-15T10:18:34;94627.47;;;18.23;36.17
77702;BME280;66868;42.708;23.404;2023-04-15T10:21:00;94618.00;;;18.41;35.54
77702;BME280;66868;42.708;23.404;2023-04-15T10:23:26;94617.75;;;18.70;35.76
77702;BME280;66868;42.708;23.404;2023-04-15T10:25:52;94618.41;;;18.97;36.42
77702;BME280;66868;42.708;23.404;2023-04-15T10:28:19;94622.00;;;19.13;35.01
77702;BME280;66868;42.708;23.404;2023-04-15T10:30:45;94584.50;;;19.20;34.95
77702;BME280;66868;42.708;23.404;2023-04-15T10:33:12;94602.59;;;19.52;35.52
77702;BME280;66868;42.708;23.404;2023-04-15T10:35:39;94594.31;;;19.82;35.73
77702;BME280;66868;42.708;23.404;2023-04-15T10:38:43;94603.34;;;20.11;34.61
77702;BME280;66868;42.708;23.404;2023-04-15T10:41:13;94601.91;;;20.24;33.27
77702;BME280;66868;42.708;23.404;2023-04-15T10:46:33;94600.78;;;20.59;33.19
77702;BME280;66868;42.708;23.404;2023-04-15T10:49:15;94604.28;;;20.83;31.30
77702;BME280;66868;42.708;23.404;2023-04-15T10:51:43;94597.19;;;20.85;31.60
77702;BME280;66868;42.708;23.404;2023-04-15T10:54:15;94602.28;;;21.01;31.92
77702;BME280;66868;42.708;23.404;2023-04-15T10:56:43;94605.81;;;21.16;31.44
77702;BME280;66868;42.708;23.404;2023-04-15T10:59:08;94607.56;;;21.24;31.02
77702;BME280;66868;42.708;23.404;2023-04-15T11:02:11;94600.28;;;21.35;30.94
77702;BME280;66868;42.708;23.404;2023-04-15T11:04:57;94597.94;;;21.48;30.67
77702;BME280;66868;42.708;23.404;2023-04-15T11:07:55;94579.19;;;21.32;29.57
77702;BME280;66868;42.708;23.404;2023-04-15T11:13:02;94598.19;;;21.31;30.21
77702;BME280;66868;42.708;23.404;2023-04-15T11:17:55;94598.88;;;21.86;30.09
77702;BME280;66868;42.708;23.404;2023-04-15T11:20:21;94590.97;;;22.11;29.36
77702;BME280;66868;42.708;23.404;2023-04-15T11:22:51;94602.28;;;22.32;29.24
77702;BME280;66868;42.708;23.404;2023-04-15T11:25:27;94596.47;;;22.30;27.36
77702;BME280;66868;42.708;23.404;2023-04-15T11:27:53;94600.53;;;22.25;28.01
77702;BME280;66868;42.708;23.404;2023-04-15T11:30:21;94590.03;;;21.81;28.22
77702;BME280;66868;42.708;23.404;2023-04-15T11:32:51;94580.25;;;21.76;29.57
77702;BME280;66868;42.708;23.404;2023-04-15T11:35:17;94584.94;;;22.03;29.21
77702;BME280;66868;42.708;23.404;2023-04-15T11:37:44;94588.53;;;21.94;27.65
77702;BME280;66868;42.708;23.404;2023-04-15T11:40:09;94592.56;;;21.89;27.72
77702;BME280;66868;42.708;23.404;2023-04-15T11:42:35;94598.41;;;21.52;27.61
77702;BME280;66868;42.708;23.404;2023-04-15T11:45:11;94578.72;;;21.28;27.98
77702;BME280;66868;42.708;23.404;2023-04-15T11:47:37;94533.38;;;21.19;28.55
77702;BME280;66868;42.708;23.404;2023-04-15T11:50:22;94574.94;;;21.78;27.92
77702;BME280;66868;42.708;23.404;2023-04-15T11:52:54;94587.63;;;22.10;26.90
77702;BME280;66868;42.708;23.404;2023-04-15T11:55:20;94582.50;;;22.25;26.77
77702;BME280;66868;42.708;23.404;2023-04-15T11:57:45;94575.50;;;22.33;26.53
77702;BME280;66868;42.708;23.404;2023-04-15T12:00:11;94586.56;;;22.57;27.26
77702;BME280;66868;42.708;23.404;2023-04-15T12:02:37;94544.03;;;22.53;26.40
77702;BME280;66868;42.708;23.404;2023-04-15T12:05:04;94578.22;;;22.69;25.69
77702;BME280;66868;42.708;23.404;2023-04-15T12:07:29;94573.31;;;22.60;26.65
77702;BME280;66868;42.708;23.404;2023-04-15T12:09:55;94574.66;;;22.56;25.82
77702;BME280;66868;42.708;23.404;2023-04-15T12:12:21;94566.09;;;22.40;25.79
77702;BME280;66868;42.708;23.404;2023-04-15T12:14:51;94574.28;;;22.44;26.85
77702;BME280;66868;42.708;23.404;2023-04-15T12:17:17;94562.47;;;22.64;26.65
77702;BME280;66868;42.708;23.404;2023-04-15T12:19:42;94576.75;;;23.19;26.29
77702;BME280;66868;42.708;23.404;2023-04-15T12:22:14;94567.06;;;23.06;24.75
77702;BME280;66868;42.708;23.404;2023-04-15T12:24:41;94572.28;;;23.13;25.56
77702;BME280;66868;42.708;23.404;2023-04-15T12:27:14;94570.19;;;23.67;25.36
77702;BME280;66868;42.708;23.404;2023-04-15T12:29:41;94578.53;;;24.26;24.54
77702;BME280;66868;42.708;23.404;2023-04-15T12:32:13;94576.81;;;24.61;24.59
77702;BME280;66868;42.708;23.404;2023-04-15T12:34:53;94547.16;;;25.39;24.27
77702;BME280;66868;42.708;23.404;2023-04-15T12:37:22;94591.13;;;26.67;23.11
77702;BME280;66868;42.708;23.404;2023-04-15T12:39:48;94585.25;;;27.24;22.33
77702;BME280;66868;42.708;23.404;2023-04-15T12:42:15;94603.22;;;27.90;21.38
77702;BME280;66868;42.708;23.404;2023-04-15T12:44:40;94577.06;;;28.16;20.46
77702;BME280;66868;42.708;23.404;2023-04-15T12:47:07;94602.50;;;28.14;20.34
77702;BME280;66868;42.708;23.404;2023-04-15T12:49:33;94594.78;;;28.32;19.85
77702;BME280;66868;42.708;23.404;2023-04-15T12:52:00;94594.16;;;27.99;20.22
77702;BME280;66868;42.708;23.404;2023-04-15T12:54:30;94598.84;;;27.33;20.34
77702;BME280;66868;42.708;23.404;2023-04-15T12:56:56;94598.03;;;27.32;20.02
77702;BME280;66868;42.708;23.404;2023-04-15T12:59:22;94592.00;;;27.38;20.51
77702;BME280;66868;42.708;23.404;2023-04-15T13:01:51;94593.31;;;26.50;21.43
77702;BME280;66868;42.708;23.404;2023-04-15T13:04:18;94598.94;;;26.87;21.23